createdAt,value
2023-04-07T00:02:01.915Z,101592.50
2023-04-07T00:04:28.765Z,101581.41
2023-04-07T00:06:55.756Z,101586.88
2023-04-07T00:09:22.309Z,101591.13
2023-04-07T00:11:48.789Z,101591.00
2023-04-07T00:14:15.394Z,101590.47
2023-04-07T00:16:41.887Z,101590.81
2023-04-07T00:19:08.431Z,101597.75
2023-04-07T00:21:34.931Z,101587.84
2023-04-07T00:24:01.426Z,101583.00
2023-04-07T00:26:31.450Z,101585.34
2023-04-07T00:28:58.923Z,101591.94
2023-04-07T00:31:25.983Z,101589.38
2023-04-07T00:33:52.929Z,101587.31
2023-04-07T00:36:19.958Z,101588.47
2023-04-07T00:38:46.540Z,101589.09
2023-04-07T00:41:13.310Z,101593.59
2023-04-07T00:43:39.908Z,101591.53
2023-04-07T00:46:06.499Z,101598.28
2023-04-07T00:48:32.998Z,101592.88
2023-04-07T00:50:59.480Z,101598.88
2023-04-07T00:53:25.957Z,101607.34
2023-04-07T00:55:52.557Z,101601.41
2023-04-07T00:58:19.071Z,101597.00
2023-04-07T01:01:05.858Z,101598.78
2023-04-07T01:04:03.170Z,101589.91
2023-04-07T01:06:33.806Z,101596.81
2023-04-07T01:09:22.436Z,101599.72
2023-04-07T01:12:00.027Z,101596.50
2023-04-07T01:14:28.505Z,101604.22
2023-04-07T01:16:58.132Z,101602.84
2023-04-07T01:19:37.402Z,101602.81
2023-04-07T01:22:11.724Z,101599.94
2023-04-07T01:25:15.877Z,101599.84
2023-04-07T01:27:57.638Z,101608.22
2023-04-07T01:30:28.614Z,101601.63
2023-04-07T01:32:56.528Z,101602.69
2023-04-07T01:35:24.557Z,101609.41
2023-04-07T01:37:51.546Z,101608.53
2023-04-07T01:40:18.310Z,101607.16
2023-04-07T01:42:45.866Z,101608.22
2023-04-07T01:45:12.534Z,101617.81
2023-04-07T01:47:39.508Z,101611.47
2023-04-07T01:50:09.247Z,101603.63
2023-04-07T01:52:36.582Z,101602.59
2023-04-07T01:55:04.422Z,101609.22
2023-04-07T01:57:30.934Z,101609.41
2023-04-07T01:59:57.494Z,101597.34
2023-04-07T02:02:24.289Z,101614.50
2023-04-07T02:05:05.461Z,101608.06
2023-04-07T02:07:52.847Z,101607.56
2023-04-07T02:10:22.858Z,101616.34
2023-04-07T02:12:49.669Z,101611.38
2023-04-07T02:15:16.761Z,101600.38
2023-04-07T02:17:46.657Z,101604.88
2023-04-07T02:20:14.279Z,101607.97
2023-04-07T02:22:41.457Z,101607.13
2023-04-07T02:25:31.054Z,101601.06
2023-04-07T02:27:58.832Z,101604.75
2023-04-07T02:30:26.507Z,101605.72
2023-04-07T02:32:53.593Z,101609.75
2023-04-07T02:35:20.507Z,101602.59
2023-04-07T02:37:47.466Z,101610.00
2023-04-07T02:40:13.955Z,101614.00
2023-04-07T02:42:40.789Z,101611.31
2023-04-07T02:45:08.760Z,101617.69
2023-04-07T02:47:35.988Z,101614.13
2023-04-07T02:50:02.845Z,101616.78
2023-04-07T02:52:29.344Z,101625.63
2023-04-07T02:54:56.140Z,101618.22
2023-04-07T02:57:22.735Z,101621.31
2023-04-07T02:59:49.188Z,101618.59
2023-04-07T03:02:15.995Z,101619.75
2023-04-07T03:04:42.608Z,101619.03
2023-04-07T03:07:09.125Z,101617.09
2023-04-07T03:09:35.573Z,101619.00
2023-04-07T03:12:02.396Z,101626.84
2023-04-07T03:14:28.878Z,101628.69
2023-04-07T03:16:56.555Z,101622.47
2023-04-07T03:19:23.081Z,101625.34
2023-04-07T03:21:49.604Z,101628.16
2023-04-07T03:24:16.350Z,101633.78
2023-04-07T03:26:42.930Z,101624.00
2023-04-07T03:29:09.375Z,101635.53
2023-04-07T03:31:37.696Z,101634.97
2023-04-07T03:34:04.779Z,101629.31
2023-04-07T03:36:34.122Z,101625.78
2023-04-07T03:39:00.661Z,101632.16
2023-04-07T03:41:27.176Z,101631.72
2023-04-07T03:43:53.866Z,101634.47
2023-04-07T03:46:21.420Z,101634.47
2023-04-07T03:48:47.993Z,101632.44
2023-04-07T03:51:15.714Z,101633.97
2023-04-07T03:53:42.176Z,101636.91
2023-04-07T03:56:08.750Z,101646.75
2023-04-07T03:58:35.445Z,101637.34
2023-04-07T04:01:01.904Z,101649.03
2023-04-07T04:03:28.475Z,101653.09
2023-04-07T04:05:55.002Z,101656.81
2023-04-07T04:08:21.454Z,101651.31
2023-04-07T04:10:47.919Z,101659.31
2023-04-07T04:13:14.379Z,101649.31
2023-04-07T04:15:41.004Z,101655.00
2023-04-07T04:18:07.524Z,101666.06
2023-04-07T04:20:34.417Z,101673.16
2023-04-07T04:23:00.874Z,101665.78
2023-04-07T04:25:27.369Z,101671.28
2023-04-07T04:27:53.831Z,101669.53
2023-04-07T04:30:20.670Z,101675.84
2023-04-07T04:32:47.681Z,101677.56
2023-04-07T04:35:14.184Z,101676.66
2023-04-07T04:37:40.660Z,101682.78
2023-04-07T04:40:08.642Z,101685.13
2023-04-07T04:42:35.928Z,101682.97
2023-04-07T04:45:02.426Z,101695.31
2023-04-07T04:47:28.964Z,101697.41
2023-04-07T04:49:55.430Z,101701.03
2023-04-07T04:52:22.038Z,101702.16
2023-04-07T04:54:48.543Z,101700.47
2023-04-07T04:57:15.008Z,101706.91
2023-04-07T04:59:42.514Z,101710.81
2023-04-07T05:02:09.626Z,101710.72
2023-04-07T05:04:36.824Z,101717.81
2023-04-07T05:07:04.138Z,101709.56
2023-04-07T05:09:31.172Z,101716.84
2023-04-07T05:11:58.074Z,101722.63
2023-04-07T05:14:24.552Z,101725.06
2023-04-07T05:16:51.484Z,101722.22
2023-04-07T05:19:17.921Z,101722.81
2023-04-07T05:21:44.411Z,101729.31
2023-04-07T05:24:10.844Z,101737.25
2023-04-07T05:26:37.276Z,101735.81
2023-04-07T05:29:03.722Z,101736.94
2023-04-07T05:31:30.332Z,101742.09
2023-04-07T05:33:56.827Z,101745.91
2023-04-07T05:36:23.890Z,101741.13
2023-04-07T05:38:50.642Z,101744.28
2023-04-07T05:41:17.069Z,101752.34
2023-04-07T05:43:43.609Z,101752.75
2023-04-07T05:46:10.070Z,101756.09
2023-04-07T05:48:36.632Z,101747.56
2023-04-07T05:51:03.187Z,101763.25
2023-04-07T05:53:29.650Z,101754.94
2023-04-07T05:55:56.108Z,101769.50
2023-04-07T05:58:22.575Z,101767.19
2023-04-07T06:00:49.015Z,101767.91
2023-04-07T06:03:15.606Z,101773.00
2023-04-07T06:05:43.737Z,101780.69
2023-04-07T06:08:11.113Z,101775.19
2023-04-07T06:10:37.636Z,101779.84
2023-04-07T06:13:04.116Z,101781.53
2023-04-07T06:15:30.710Z,101782.31
2023-04-07T06:17:57.381Z,101785.34
2023-04-07T06:20:24.260Z,101778.81
2023-04-07T06:22:50.762Z,101786.19
2023-04-07T06:25:17.404Z,101790.41
2023-04-07T06:27:43.856Z,101787.47
2023-04-07T06:30:10.878Z,101791.38
2023-04-07T06:32:37.768Z,101800.91
2023-04-07T06:35:04.635Z,101808.22
2023-04-07T06:37:31.122Z,101804.94
2023-04-07T06:39:57.575Z,101803.59
2023-04-07T06:42:24.064Z,101811.66
2023-04-07T06:44:50.501Z,101822.28
2023-04-07T06:47:16.939Z,101819.13
2023-04-07T06:49:43.431Z,101820.78
2023-04-07T06:52:09.893Z,101821.28
2023-04-07T06:54:36.381Z,101825.09
2023-04-07T06:57:02.916Z,101815.78
2023-04-07T06:59:29.414Z,101824.34
2023-04-07T07:01:55.996Z,101823.53
2023-04-07T07:04:22.757Z,101821.38
2023-04-07T07:06:49.363Z,101828.75
2023-04-07T07:09:16.079Z,101824.69
2023-04-07T07:11:42.529Z,101825.47
2023-04-07T07:14:09.042Z,101826.09
2023-04-07T07:16:35.506Z,101829.41
2023-04-07T07:19:01.996Z,101832.31
2023-04-07T07:21:28.431Z,101828.50
2023-04-07T07:23:54.931Z,101823.28
2023-04-07T07:26:21.374Z,101830.41
2023-04-07T07:28:47.834Z,101829.31
2023-04-07T07:31:15.658Z,101842.88
2023-04-07T07:33:43.956Z,101839.03
2023-04-07T07:36:10.785Z,101846.13
2023-04-07T07:38:37.837Z,101834.69
2023-04-07T07:41:11.366Z,101836.72
2023-04-07T07:43:37.915Z,101838.59
2023-04-07T07:46:04.556Z,101839.81
2023-04-07T07:48:31.357Z,101841.88
2023-04-07T07:50:57.941Z,101841.56
2023-04-07T07:53:24.447Z,101853.69
2023-04-07T07:55:51.024Z,101846.81
2023-04-07T07:58:17.613Z,101849.16
2023-04-07T08:00:44.099Z,101844.34
2023-04-07T08:03:11.008Z,101843.47
2023-04-07T08:05:37.817Z,101858.84
2023-04-07T08:08:05.871Z,101850.56
2023-04-07T08:10:32.385Z,101864.47
2023-04-07T08:12:58.972Z,101860.75
2023-04-07T08:15:25.598Z,101862.22
2023-04-07T08:20:44.716Z,101864.59
2023-04-07T08:23:11.224Z,101867.41
2023-04-07T08:25:39.998Z,101873.25
2023-04-07T08:30:59.159Z,101870.31
2023-04-07T08:33:26.802Z,101870.09
2023-04-07T08:36:19.908Z,101871.34
2023-04-07T08:38:49.404Z,101878.41
2023-04-07T08:41:24.918Z,101877.06
2023-04-07T08:43:52.643Z,101875.53
2023-04-07T08:46:27.522Z,101884.94
2023-04-07T08:48:56.110Z,101875.19
2023-04-07T08:51:35.398Z,101878.84
2023-04-07T08:57:10.068Z,101881.94
2023-04-07T08:59:36.903Z,101885.41
2023-04-07T09:02:31.182Z,101880.50
2023-04-07T09:05:34.966Z,101887.56
2023-04-07T09:11:45.798Z,101881.19
2023-04-07T09:14:12.780Z,101884.34
2023-04-07T09:16:41.698Z,101879.38
2023-04-07T09:21:50.934Z,101886.28
2023-04-07T09:24:28.940Z,101883.59
2023-04-07T09:27:19.356Z,101878.78
2023-04-07T09:30:00.899Z,101884.84
2023-04-07T09:32:42.283Z,101875.00
2023-04-07T09:35:11.127Z,101877.72
2023-04-07T09:40:28.270Z,101879.34
2023-04-07T09:43:02.770Z,101876.75
2023-04-07T09:45:35.404Z,101883.56
2023-04-07T09:48:25.762Z,101875.91
2023-04-07T09:51:23.127Z,101875.81
2023-04-07T09:54:25.985Z,101867.59
2023-04-07T09:59:45.176Z,101870.59
2023-04-07T10:02:12.474Z,101868.34
2023-04-07T10:04:40.959Z,101872.38
2023-04-07T10:07:14.666Z,101874.69
2023-04-07T10:09:42.889Z,101864.47
2023-04-07T10:12:11.900Z,101872.66
2023-04-07T10:14:40.298Z,101870.06
2023-04-07T10:17:07.634Z,101874.41
2023-04-07T10:19:34.734Z,101872.22
2023-04-07T10:22:02.326Z,101869.22
2023-04-07T10:24:52.838Z,101876.28
2023-04-07T10:27:23.225Z,101875.56
2023-04-07T10:29:51.572Z,101869.13
2023-04-07T10:32:18.447Z,101882.38
2023-04-07T10:34:51.048Z,101873.22
2023-04-07T10:37:21.224Z,101874.28
2023-04-07T10:39:49.063Z,101883.94
2023-04-07T10:42:37.633Z,101870.88
2023-04-07T10:45:09.298Z,101875.94
2023-04-07T10:48:03.182Z,101871.03
2023-04-07T10:50:30.414Z,101881.94
2023-04-07T10:53:12.411Z,101873.13
2023-04-07T10:55:46.832Z,101874.47
2023-04-07T10:58:14.494Z,101884.16
2023-04-07T11:00:48.442Z,101877.97
2023-04-07T11:03:17.064Z,101877.19
2023-04-07T11:05:44.315Z,101879.59
2023-04-07T11:08:12.122Z,101884.19
2023-04-07T11:10:39.710Z,101879.41
2023-04-07T11:13:12.083Z,101880.22
2023-04-07T11:15:41.025Z,101874.94
2023-04-07T11:18:12.528Z,101883.47
2023-04-07T11:20:46.011Z,101883.56
2023-04-07T11:23:16.991Z,101878.94
2023-04-07T11:25:56.025Z,101892.88
2023-04-07T11:28:28.373Z,101887.91
2023-04-07T11:30:58.057Z,101893.22
2023-04-07T11:33:32.320Z,101890.38
2023-04-07T11:36:06.444Z,101885.53
2023-04-07T11:38:41.852Z,101893.91
2023-04-07T11:41:13.818Z,101888.53
2023-04-07T11:43:44.574Z,101890.50
2023-04-07T11:46:18.439Z,101893.38
2023-04-07T11:48:48.567Z,101893.66
2023-04-07T11:51:28.432Z,101905.22
2023-04-07T11:53:58.356Z,101901.03
2023-04-07T11:56:26.525Z,101901.34
2023-04-07T11:58:55.261Z,101903.75
2023-04-07T12:01:24.711Z,101909.63
2023-04-07T12:04:02.942Z,101906.75
2023-04-07T12:06:30.981Z,101919.22
2023-04-07T12:08:57.418Z,101904.91
2023-04-07T12:11:25.113Z,101912.66
2023-04-07T12:13:51.920Z,101906.34
2023-04-07T12:16:19.300Z,101915.72
2023-04-07T12:18:45.871Z,101911.44
2023-04-07T12:21:12.413Z,101908.84
2023-04-07T12:23:38.891Z,101921.13
2023-04-07T12:26:05.410Z,101911.66
2023-04-07T12:28:31.854Z,101910.16
2023-04-07T12:30:58.898Z,101912.75
2023-04-07T12:33:25.480Z,101914.84
2023-04-07T12:35:52.219Z,101906.25
2023-04-07T12:38:18.753Z,101919.16
2023-04-07T12:40:45.397Z,101925.44
2023-04-07T12:43:11.962Z,101920.41
2023-04-07T12:45:38.483Z,101919.00
2023-04-07T12:48:05.384Z,101918.38
2023-04-07T12:50:31.899Z,101917.66
2023-04-07T12:53:03.632Z,101913.88
2023-04-07T12:55:33.359Z,101915.81
2023-04-07T12:58:00.448Z,101918.00
2023-04-07T13:00:27.027Z,101920.66
2023-04-07T13:02:53.654Z,101923.13
2023-04-07T13:05:20.214Z,101929.06
2023-04-07T13:07:48.281Z,101926.50
2023-04-07T13:10:16.178Z,101927.00
2023-04-07T13:12:42.668Z,101911.09
2023-04-07T13:15:09.213Z,101908.91
2023-04-07T13:17:38.766Z,101916.91
2023-04-07T13:20:06.507Z,101918.50
2023-04-07T13:22:34.743Z,101917.50
2023-04-07T13:25:02.437Z,101920.47
2023-04-07T13:27:28.900Z,101918.91
2023-04-07T13:29:55.785Z,101912.31
2023-04-07T13:32:22.428Z,101917.81
2023-04-07T13:34:48.928Z,101922.88
2023-04-07T13:37:16.649Z,101925.53
2023-04-07T13:39:43.101Z,101930.41
2023-04-07T13:42:10.898Z,101919.88
2023-04-07T13:44:40.130Z,101924.84
2023-04-07T13:47:06.702Z,101934.31
2023-04-07T13:49:33.170Z,101926.19
2023-04-07T13:51:59.718Z,101934.47
2023-04-07T13:54:29.395Z,101920.34
2023-04-07T13:56:55.917Z,101926.88
2023-04-07T13:59:42.279Z,101931.22
2023-04-07T14:02:08.899Z,101926.75
2023-04-07T14:04:35.613Z,101922.91
2023-04-07T14:07:02.133Z,101915.47
2023-04-07T14:09:28.695Z,101927.63
2023-04-07T14:11:55.142Z,101923.28
2023-04-07T14:14:21.653Z,101910.63
2023-04-07T14:16:50.774Z,101911.19
2023-04-07T14:19:17.446Z,101906.59
2023-04-07T14:21:43.870Z,101915.88
2023-04-07T14:24:10.631Z,101910.97
2023-04-07T14:26:37.099Z,101913.19
2023-04-07T14:29:03.918Z,101921.13
2023-04-07T14:31:30.490Z,101918.66
2023-04-07T14:33:58.103Z,101921.13
2023-04-07T14:36:24.674Z,101925.59
2023-04-07T14:38:51.507Z,101922.53
2023-04-07T14:41:18.275Z,101934.47
2023-04-07T14:43:44.748Z,101937.34
2023-04-07T14:46:12.382Z,101948.91
2023-04-07T14:48:39.279Z,101941.09
2023-04-07T14:51:11.873Z,101945.84
2023-04-07T14:53:38.680Z,101938.47
2023-04-07T14:56:11.016Z,101942.41
2023-04-07T14:58:39.099Z,101941.81
2023-04-07T15:01:06.629Z,101945.81
2023-04-07T15:03:34.932Z,101956.47
2023-04-07T15:06:01.641Z,101948.03
2023-04-07T15:08:28.113Z,101965.56
2023-04-07T15:10:54.607Z,101962.66
2023-04-07T15:13:21.136Z,101963.44
2023-04-07T15:15:47.637Z,101964.81
2023-04-07T15:18:14.387Z,101960.25
2023-04-07T15:20:40.891Z,101960.00
2023-04-07T15:23:08.209Z,101955.63
2023-04-07T15:25:36.364Z,101967.31
2023-04-07T15:28:10.236Z,101971.97
2023-04-07T15:30:39.269Z,101967.13
2023-04-07T15:33:11.303Z,101964.34
2023-04-07T15:35:39.329Z,101968.88
2023-04-07T15:38:07.882Z,101965.44
2023-04-07T16:03:55.315Z,101989.16
2023-04-07T16:06:22.925Z,101986.81
2023-04-07T16:08:49.408Z,101983.47
2023-04-07T16:11:15.878Z,101997.50
2023-04-07T16:13:42.331Z,101992.16
2023-04-07T16:16:11.426Z,102005.28
2023-04-07T16:18:37.940Z,102002.75
2023-04-07T16:21:07.733Z,102004.22
2023-04-07T16:23:51.074Z,102005.47
2023-04-07T16:26:17.755Z,102005.28
2023-04-07T16:28:46.939Z,102014.97
2023-04-07T16:31:14.213Z,102011.41
2023-04-07T16:33:40.832Z,102014.03
2023-04-07T16:36:07.442Z,102017.22
2023-04-07T16:38:33.969Z,102013.66
2023-04-07T16:41:04.330Z,102027.38
2023-04-07T16:43:31.616Z,102022.28
2023-04-07T16:46:00.382Z,102019.72
2023-04-07T16:48:50.392Z,102025.41
2023-04-07T16:51:37.096Z,102027.34
2023-04-07T16:54:03.828Z,102023.75
2023-04-07T16:56:32.049Z,102025.84
2023-04-07T17:01:49.998Z,102033.81
2023-04-07T17:04:17.867Z,102031.16
2023-04-07T17:06:44.579Z,102035.59
2023-04-07T17:09:15.946Z,102041.66
2023-04-07T17:11:46.492Z,102056.69
2023-04-07T17:14:16.134Z,102047.91
2023-04-07T17:16:42.574Z,102057.84
2023-04-07T17:21:49.651Z,102058.94
2023-04-07T17:24:16.801Z,102064.53
2023-04-07T17:26:44.325Z,102076.06
2023-04-07T17:29:10.802Z,102083.25
2023-04-07T17:31:37.399Z,102088.78
2023-04-07T17:34:04.001Z,102084.38
2023-04-07T17:36:33.948Z,102087.56
2023-04-07T17:39:01.415Z,102084.63
2023-04-07T17:41:28.405Z,102102.97
2023-04-07T17:43:55.076Z,102095.50
2023-04-07T17:46:23.178Z,102097.41
2023-04-07T17:48:50.783Z,102098.84
2023-04-07T17:51:17.477Z,102098.47
2023-04-07T17:53:44.097Z,102100.41
2023-04-07T17:56:10.618Z,102104.97
2023-04-07T17:58:37.099Z,102103.47
2023-04-07T18:01:04.231Z,102110.59
2023-04-07T18:03:30.827Z,102117.25
2023-04-07T18:05:57.404Z,102106.19
2023-04-07T18:08:24.977Z,102107.28
2023-04-07T18:10:52.281Z,102119.09
2023-04-07T18:13:18.757Z,102118.81
2023-04-07T18:15:45.391Z,102117.22
2023-04-07T18:18:12.294Z,102121.28
2023-04-07T18:20:38.793Z,102122.00
2023-04-07T18:23:05.542Z,102114.13
2023-04-07T18:25:32.151Z,102116.81
2023-04-07T18:27:59.000Z,102123.72
2023-04-07T18:30:25.525Z,102128.88
2023-04-07T18:32:52.018Z,102130.94
2023-04-07T18:35:18.679Z,102134.63
2023-04-07T18:37:45.197Z,102132.75
2023-04-07T18:40:12.194Z,102147.81
2023-04-07T18:42:38.745Z,102136.78
2023-04-07T18:45:06.276Z,102140.13
2023-04-07T18:47:32.854Z,102142.69
2023-04-07T18:49:59.335Z,102142.50
2023-04-07T18:52:26.608Z,102148.88
2023-04-07T18:54:53.153Z,102149.69
2023-04-07T18:57:19.685Z,102146.09
2023-04-07T18:59:46.165Z,102150.38
2023-04-07T19:02:12.826Z,102145.94
2023-04-07T19:04:39.689Z,102150.59
2023-04-07T19:07:06.310Z,102144.50
2023-04-07T19:09:33.332Z,102144.84
2023-04-07T19:11:59.849Z,102150.88
2023-04-07T19:14:26.443Z,102153.81
2023-04-07T19:16:53.051Z,102149.75
2023-04-07T19:19:19.586Z,102152.59
2023-04-07T19:21:46.289Z,102153.28
2023-04-07T19:24:12.744Z,102153.63
2023-04-07T19:26:39.293Z,102150.78
2023-04-07T19:29:05.880Z,102162.38
2023-04-07T19:31:32.386Z,102165.94
2023-04-07T19:33:59.129Z,102163.97
2023-04-07T19:36:26.499Z,102167.84
2023-04-07T19:38:53.061Z,102168.81
2023-04-07T19:41:19.573Z,102168.25
2023-04-07T19:43:46.082Z,102159.59
2023-04-07T19:46:12.650Z,102168.91
2023-04-07T19:48:40.063Z,102172.28
2023-04-07T19:51:07.497Z,102181.47
2023-04-07T19:53:34.176Z,102171.75
2023-04-07T19:56:02.216Z,102173.56
2023-04-07T19:58:28.678Z,102168.81
2023-04-07T20:00:55.452Z,102182.03
2023-04-07T20:03:22.727Z,102181.28
2023-04-07T20:05:49.660Z,102183.22
2023-04-07T20:08:16.454Z,102176.75
2023-04-07T20:10:42.942Z,102183.75
2023-04-07T20:13:09.695Z,102180.66
2023-04-07T20:15:36.677Z,102186.75
2023-04-07T20:18:03.786Z,102188.09
2023-04-07T20:20:30.344Z,102182.91
2023-04-07T20:22:56.799Z,102182.81
2023-04-07T20:25:23.451Z,102190.69
2023-04-07T20:27:50.405Z,102183.38
2023-04-07T20:30:17.019Z,102191.16
2023-04-07T20:32:43.879Z,102192.78
2023-04-07T20:35:12.014Z,102191.38
2023-04-07T20:37:38.632Z,102189.88
2023-04-07T20:40:06.149Z,102202.19
2023-04-07T20:42:32.678Z,102192.94
2023-04-07T20:45:03.766Z,102191.25
2023-04-07T20:47:31.320Z,102198.75
2023-04-07T20:49:58.785Z,102195.63
2023-04-07T20:52:27.061Z,102192.38
2023-04-07T20:54:53.609Z,102202.25
2023-04-07T20:57:20.085Z,102198.69
2023-04-07T20:59:46.519Z,102193.91
2023-04-07T21:02:13.142Z,102197.97
2023-04-07T21:04:39.993Z,102189.16
2023-04-07T21:07:06.537Z,102190.28
2023-04-07T21:09:32.997Z,102192.44
2023-04-07T21:12:02.004Z,102191.34
2023-04-07T21:14:30.622Z,102187.50
2023-04-07T21:16:57.162Z,102196.44
2023-04-07T21:19:28.788Z,102194.09
2023-04-07T21:21:55.314Z,102193.50
2023-04-07T21:24:21.924Z,102194.91
2023-04-07T21:26:48.413Z,102193.59
2023-04-07T21:29:14.895Z,102192.97
2023-04-07T21:31:41.854Z,102185.84
2023-04-07T21:34:08.398Z,102191.81
2023-04-07T21:36:34.898Z,102194.34
2023-04-07T21:39:01.339Z,102191.66
2023-04-07T21:41:27.831Z,102196.91
2023-04-07T21:43:54.326Z,102189.53
2023-04-07T21:46:20.952Z,102189.38
2023-04-07T21:48:49.105Z,102192.66
2023-04-07T21:51:37.435Z,102184.28
2023-04-07T21:54:03.958Z,102184.63
2023-04-07T21:56:39.603Z,102191.03
2023-04-07T21:59:06.343Z,102183.28
2023-04-07T22:01:45.979Z,102189.44
2023-04-07T22:04:18.523Z,102188.97
2023-04-07T22:10:21.749Z,102178.97
2023-04-07T22:15:28.894Z,102182.53
2023-04-07T22:21:27.582Z,102185.50
2023-04-07T22:24:25.373Z,102178.13
2023-04-07T22:26:55.501Z,102182.81
2023-04-07T22:29:25.012Z,102186.38
2023-04-07T22:31:51.646Z,102182.53
2023-04-07T22:34:18.524Z,102187.53
2023-04-07T22:36:45.531Z,102195.19
2023-04-07T22:39:33.288Z,102194.22
2023-04-07T22:41:59.824Z,102192.91
2023-04-07T22:44:26.976Z,102194.19
2023-04-07T22:46:53.591Z,102203.84
2023-04-07T22:49:20.453Z,102197.97
2023-04-07T22:51:50.648Z,102192.53
2023-04-07T22:54:17.776Z,102195.47
2023-04-07T22:56:44.700Z,102199.72
2023-04-07T22:59:11.250Z,102197.38
2023-04-07T23:01:38.721Z,102196.34
2023-04-07T23:04:05.395Z,102194.09
2023-04-07T23:06:32.232Z,102196.25
2023-04-07T23:08:58.774Z,102199.78
2023-04-07T23:11:25.480Z,102189.06
2023-04-07T23:13:52.292Z,102198.53
2023-04-07T23:16:21.552Z,102193.38
2023-04-07T23:18:48.213Z,102201.91
2023-04-07T23:24:17.082Z,102194.09
2023-04-07T23:26:50.320Z,102193.41
2023-04-07T23:29:17.737Z,102187.63
2023-04-07T23:31:44.327Z,102192.19
2023-04-07T23:34:11.120Z,102198.72
2023-04-07T23:37:01.241Z,102191.13
2023-04-07T23:39:27.947Z,102182.00
2023-04-07T23:41:54.620Z,102183.72
2023-04-07T23:47:09.939Z,102190.44
2023-04-07T23:49:42.465Z,102180.06
2023-04-07T23:52:21.468Z,102183.44
2023-04-07T23:54:48.022Z,102184.41
2023-04-07T23:57:14.611Z,102189.50
2023-04-07T23:59:42.130Z,102179.16
